createdAt,value
2022-11-20T00:01:26.643Z,74.36
2022-11-20T00:03:55.395Z,75.16
2022-11-20T00:06:23.601Z,75.35
2022-11-20T00:08:51.523Z,74.74
2022-11-20T00:11:24.473Z,75.95
2022-11-20T00:13:54.098Z,76.20
2022-11-20T00:16:23.614Z,75.55
2022-11-20T00:18:51.028Z,75.76
2022-11-20T00:21:20.739Z,73.56
2022-11-20T00:23:50.312Z,73.50
2022-11-20T00:26:19.901Z,73.85
2022-11-20T00:28:53.111Z,72.69
2022-11-20T00:31:21.089Z,69.96
2022-11-20T00:33:48.912Z,69.80
2022-11-20T00:36:18.863Z,70.05
2022-11-20T00:38:47.210Z,69.74
2022-11-20T00:41:16.485Z,68.26
2022-11-20T00:43:44.018Z,67.97
2022-11-20T00:46:14.838Z,70.27
2022-11-20T00:48:42.558Z,71.43
2022-11-20T00:51:10.161Z,70.58
2022-11-20T00:53:37.766Z,70.57
2022-11-20T00:56:07.237Z,71.10
2022-11-20T00:58:36.727Z,70.97
2022-11-20T01:01:06.916Z,70.90
2022-11-20T01:03:36.000Z,73.25
2022-11-20T01:06:05.670Z,72.68
2022-11-20T01:08:36.888Z,72.40
2022-11-20T01:11:07.702Z,72.19
2022-11-20T01:13:38.334Z,71.93
2022-11-20T01:16:16.414Z,72.09
2022-11-20T01:18:46.463Z,71.31
2022-11-20T01:21:16.431Z,70.77
2022-11-20T01:23:44.501Z,71.54
2022-11-20T01:26:14.183Z,71.75
2022-11-20T01:28:42.234Z,73.37
2022-11-20T01:31:13.935Z,72.77
2022-11-20T01:33:42.500Z,71.07
2022-11-20T01:36:10.569Z,70.71
2022-11-20T01:38:37.957Z,69.81
2022-11-20T01:41:06.250Z,68.78
2022-11-20T01:43:33.604Z,69.66
2022-11-20T01:46:26.069Z,69.30
2022-11-20T01:49:04.102Z,69.18
2022-11-20T01:51:43.726Z,68.23
2022-11-20T01:54:17.415Z,67.59
2022-11-20T01:56:47.293Z,68.83
2022-11-20T01:59:17.061Z,67.64
2022-11-20T02:01:44.524Z,68.14
2022-11-20T02:04:13.067Z,68.77
2022-11-20T02:06:46.123Z,68.88
2022-11-20T02:09:14.698Z,67.26
2022-11-20T02:11:42.101Z,66.53
2022-11-20T02:14:09.836Z,66.64
2022-11-20T02:16:45.091Z,67.19
2022-11-20T02:19:26.137Z,68.59
2022-11-20T02:21:53.586Z,65.56
2022-11-20T02:24:22.972Z,65.95
2022-11-20T02:26:54.526Z,67.70
2022-11-20T02:29:33.743Z,66.81
2022-11-20T02:32:02.448Z,67.53
2022-11-20T02:34:30.106Z,68.79
2022-11-20T02:36:57.964Z,71.39
2022-11-20T02:39:26.641Z,68.85
2022-11-20T02:41:55.272Z,68.42
2022-11-20T02:44:22.614Z,71.88
2022-11-20T02:46:49.955Z,68.48
2022-11-20T02:49:18.002Z,68.07
2022-11-20T02:51:45.626Z,69.60
2022-11-20T02:54:12.942Z,70.18
2022-11-20T02:56:40.585Z,69.47
2022-11-20T02:59:08.166Z,68.20
2022-11-20T03:01:35.630Z,70.13
2022-11-20T03:04:03.336Z,70.32
2022-11-20T03:06:30.749Z,70.51
2022-11-20T03:08:58.043Z,72.75
2022-11-20T03:11:25.655Z,72.34
2022-11-20T03:13:52.998Z,71.93
2022-11-20T03:16:22.146Z,72.99
2022-11-20T03:18:50.119Z,72.50
2022-11-20T03:21:17.682Z,71.57
2022-11-20T03:23:44.997Z,71.20
2022-11-20T03:26:24.278Z,73.29
2022-11-20T03:28:53.390Z,72.39
2022-11-20T03:31:23.214Z,71.66
2022-11-20T03:33:50.700Z,70.23
2022-11-20T03:36:19.412Z,70.73
2022-11-20T03:38:47.505Z,71.96
2022-11-20T03:41:18.850Z,72.80
2022-11-20T03:43:57.767Z,75.12
2022-11-20T03:46:25.883Z,76.21
2022-11-20T03:48:53.451Z,75.76
2022-11-20T03:51:25.600Z,76.55
2022-11-20T03:53:54.745Z,77.24
2022-11-20T03:56:25.310Z,75.01
2022-11-20T03:58:53.009Z,73.19
2022-11-20T04:01:22.828Z,73.46
2022-11-20T04:03:50.744Z,74.46
2022-11-20T04:06:20.687Z,75.23
2022-11-20T04:08:53.332Z,75.72
2022-11-20T04:11:26.373Z,75.29
2022-11-20T04:13:57.367Z,75.46
2022-11-20T04:16:26.043Z,74.35
2022-11-20T04:18:58.130Z,76.31
2022-11-20T04:21:26.725Z,74.74
2022-11-20T04:23:54.605Z,73.69
2022-11-20T04:26:23.127Z,72.96
2022-11-20T04:28:50.875Z,71.28
2022-11-20T04:31:23.174Z,71.83
2022-11-20T04:33:51.044Z,69.20
2022-11-20T04:36:22.046Z,70.36
2022-11-20T04:38:57.623Z,70.08
2022-11-20T04:41:27.282Z,70.59
2022-11-20T04:44:00.301Z,71.01
2022-11-20T04:46:28.603Z,69.36
2022-11-20T04:48:55.965Z,68.99
2022-11-20T04:51:23.350Z,70.28
2022-11-20T04:53:50.944Z,68.79
2022-11-20T04:56:18.299Z,69.21
2022-11-20T04:58:45.744Z,69.65
2022-11-20T05:01:18.475Z,70.57
2022-11-20T05:03:46.328Z,70.21
2022-11-20T05:06:16.690Z,70.85
2022-11-20T05:08:44.343Z,68.85
2022-11-20T05:11:13.872Z,68.43
2022-11-20T05:13:41.785Z,68.33
2022-11-20T05:16:15.050Z,69.81
2022-11-20T05:18:43.351Z,72.68
2022-11-20T05:21:11.560Z,71.41
2022-11-20T05:23:39.530Z,70.23
2022-11-20T05:26:09.715Z,71.41
2022-11-20T05:28:37.038Z,71.29
2022-11-20T05:31:07.972Z,69.65
2022-11-20T05:33:36.420Z,70.92
2022-11-20T05:36:05.261Z,70.45
2022-11-20T05:38:32.718Z,70.61
2022-11-20T05:41:20.474Z,69.97
2022-11-20T05:43:48.741Z,71.04
2022-11-20T05:46:26.415Z,70.91
2022-11-20T05:48:56.642Z,71.28
2022-11-20T05:51:24.675Z,70.81
2022-11-20T05:53:51.989Z,70.15
2022-11-20T05:56:21.535Z,70.30
2022-11-20T05:58:49.793Z,69.50
2022-11-20T06:01:20.188Z,68.90
2022-11-20T06:03:48.789Z,70.14
2022-11-20T06:06:16.566Z,70.68
2022-11-20T06:08:45.519Z,69.67
2022-11-20T06:11:14.467Z,70.11
2022-11-20T06:13:42.971Z,70.52
2022-11-20T06:16:11.720Z,68.38
2022-11-20T06:18:39.823Z,69.43
2022-11-20T06:21:13.510Z,69.50
2022-11-20T06:23:41.637Z,70.66
2022-11-20T06:26:11.410Z,69.45
2022-11-20T06:28:39.246Z,68.86
2022-11-20T06:31:07.761Z,70.94
2022-11-20T06:33:35.289Z,70.60
2022-11-20T06:36:08.971Z,69.80
2022-11-20T06:38:38.600Z,70.49
2022-11-20T06:41:14.089Z,70.09
2022-11-20T06:43:41.948Z,68.54
2022-11-20T06:46:11.283Z,68.31
2022-11-20T06:48:38.694Z,67.89
2022-11-20T06:51:07.853Z,68.68
2022-11-20T06:53:35.458Z,67.88
2022-11-20T06:56:21.356Z,68.99
2022-11-20T06:58:49.002Z,69.04
2022-11-20T07:01:16.647Z,71.03
2022-11-20T07:03:44.090Z,68.54
2022-11-20T07:06:11.928Z,66.18
2022-11-20T07:08:39.301Z,65.53
2022-11-20T07:11:08.036Z,66.76
2022-11-20T07:13:35.800Z,66.09
2022-11-20T07:16:06.315Z,66.81
2022-11-20T07:18:33.863Z,67.80
2022-11-20T07:21:02.891Z,71.68
2022-11-20T07:23:30.323Z,71.18
2022-11-20T07:25:58.014Z,71.94
2022-11-20T07:28:25.592Z,71.57
2022-11-20T07:30:53.855Z,73.92
2022-11-20T07:33:21.523Z,72.72
2022-11-20T07:35:49.134Z,71.96
2022-11-20T07:38:16.446Z,71.77
2022-11-20T07:40:43.805Z,74.36
2022-11-20T07:43:11.426Z,73.63
2022-11-20T07:45:39.791Z,73.41
2022-11-20T07:48:07.112Z,73.10
2022-11-20T07:50:34.710Z,72.44
2022-11-20T07:53:05.736Z,73.34
2022-11-20T07:55:33.461Z,76.48
2022-11-20T07:58:01.053Z,75.70
2022-11-20T08:00:28.523Z,73.35
2022-11-20T08:02:56.219Z,74.47
2022-11-20T08:05:23.589Z,72.41
2022-11-20T08:07:50.893Z,70.40
2022-11-20T08:10:18.535Z,70.79
2022-11-20T08:13:08.778Z,69.13
2022-11-20T08:15:36.821Z,70.53
2022-11-20T08:18:30.141Z,71.28
2022-11-20T08:20:56.788Z,69.00
2022-11-20T08:23:24.252Z,68.03
2022-11-20T08:25:52.232Z,69.58
2022-11-20T08:28:22.574Z,71.89
2022-11-20T08:30:51.176Z,74.31
2022-11-20T08:33:19.172Z,71.12
2022-11-20T08:35:47.117Z,69.86
2022-11-20T08:38:14.469Z,72.62
2022-11-20T08:40:41.781Z,71.20
2022-11-20T08:43:09.356Z,73.10
2022-11-20T08:45:36.659Z,72.16
2022-11-20T08:48:04.490Z,71.53
2022-11-20T08:50:34.017Z,71.20
2022-11-20T08:53:05.485Z,72.10
2022-11-20T08:55:33.393Z,69.77
2022-11-20T08:58:05.167Z,72.39
2022-11-20T09:00:33.657Z,71.71
2022-11-20T09:03:02.177Z,68.84
2022-11-20T09:05:30.142Z,68.40
2022-11-20T09:07:58.438Z,68.57
2022-11-20T09:10:26.286Z,69.70
2022-11-20T09:12:54.634Z,69.71
2022-11-20T09:15:22.323Z,67.76
2022-11-20T09:17:59.311Z,67.16
2022-11-20T09:20:29.618Z,68.73
2022-11-20T09:22:57.628Z,68.38
2022-11-20T09:25:25.159Z,70.44
2022-11-20T09:27:59.664Z,70.06
2022-11-20T09:30:27.746Z,69.37
2022-11-20T09:32:56.150Z,70.20
2022-11-20T09:35:23.655Z,69.32
2022-11-20T09:37:51.227Z,68.59
2022-11-20T09:40:24.339Z,67.93
2022-11-20T09:43:13.198Z,67.96
2022-11-20T09:46:04.079Z,67.39
2022-11-20T09:48:53.140Z,66.48
2022-11-20T09:51:43.277Z,66.86
2022-11-20T09:54:19.440Z,66.83
2022-11-20T09:56:51.400Z,69.60
2022-11-20T09:59:32.311Z,69.34
2022-11-20T10:02:00.394Z,68.95
2022-11-20T10:04:31.346Z,68.40
2022-11-20T10:09:56.082Z,67.80
2022-11-20T10:12:47.049Z,69.97
2022-11-20T10:15:36.979Z,70.46
2022-11-20T10:18:12.388Z,69.99
2022-11-20T10:20:48.543Z,71.25
2022-11-20T10:23:30.869Z,71.26
2022-11-20T10:26:07.132Z,70.40
2022-11-20T10:29:02.330Z,69.57
2022-11-20T10:31:45.925Z,67.68
2022-11-20T10:34:23.078Z,66.70
2022-11-20T10:36:59.778Z,68.26
2022-11-20T10:39:34.978Z,68.08
2022-11-20T10:42:02.700Z,67.17
2022-11-20T10:44:55.102Z,67.91
2022-11-20T10:47:23.935Z,66.12
2022-11-20T10:49:56.897Z,65.86
2022-11-20T10:52:34.132Z,65.79
2022-11-20T10:55:41.014Z,65.12
2022-11-20T10:58:17.678Z,65.48
2022-11-20T11:00:45.076Z,64.32
2022-11-20T11:03:28.462Z,66.47
2022-11-20T11:06:08.105Z,65.43
2022-11-20T11:08:39.355Z,66.93
2022-11-20T11:11:21.752Z,67.20
2022-11-20T11:13:49.337Z,65.63
2022-11-20T11:16:25.642Z,66.50
2022-11-20T11:19:08.240Z,64.51
2022-11-20T11:21:37.015Z,63.44
2022-11-20T11:24:27.059Z,62.72
2022-11-20T11:26:59.696Z,65.68
2022-11-20T11:29:30.400Z,66.37
2022-11-20T11:32:24.297Z,64.29
2022-11-20T11:35:03.510Z,66.70
2022-11-20T11:37:37.058Z,66.61
2022-11-20T11:42:56.523Z,67.74
2022-11-20T11:45:24.712Z,68.37
2022-11-20T11:47:53.872Z,68.51
2022-11-20T11:50:32.148Z,67.56
2022-11-20T11:53:10.593Z,67.52
2022-11-20T11:55:51.351Z,66.96
2022-11-20T11:58:46.620Z,66.21
2022-11-20T12:01:26.420Z,67.04
2022-11-20T12:04:18.722Z,70.49
2022-11-20T12:06:49.771Z,68.88
2022-11-20T12:09:19.374Z,68.49
2022-11-20T12:11:50.331Z,67.50
2022-11-20T12:14:44.303Z,67.52
2022-11-20T12:17:13.023Z,68.37
2022-11-20T12:19:41.907Z,68.44
2022-11-20T12:22:37.602Z,70.16
2022-11-20T12:25:11.993Z,70.45
2022-11-20T12:27:59.256Z,69.30
2022-11-20T12:30:27.362Z,70.34
2022-11-20T12:33:16.608Z,69.01
2022-11-20T12:36:10.217Z,70.87
2022-11-20T12:39:07.412Z,68.02
2022-11-20T12:41:59.787Z,69.45
2022-11-20T12:44:56.027Z,68.97
2022-11-20T12:47:42.473Z,68.19
2022-11-20T12:50:13.913Z,68.99
2022-11-20T12:52:53.382Z,67.41
2022-11-20T12:55:42.628Z,67.98
2022-11-20T12:58:19.477Z,67.09
2022-11-20T13:01:09.545Z,65.39
2022-11-20T13:03:44.928Z,65.74
2022-11-20T13:06:17.502Z,65.41
2022-11-20T13:08:57.255Z,67.24
2022-11-20T13:11:35.308Z,65.54
2022-11-20T13:14:23.099Z,65.69
2022-11-20T13:17:15.409Z,67.64
2022-11-20T13:19:49.100Z,65.52
2022-11-20T13:22:32.665Z,66.47
2022-11-20T13:25:00.752Z,65.62
2022-11-20T13:27:31.967Z,64.68
2022-11-20T13:30:14.655Z,66.12
2022-11-20T13:32:55.373Z,65.21
2022-11-20T13:35:55.741Z,65.64
2022-11-20T13:38:23.240Z,66.06
2022-11-20T13:40:59.610Z,64.88
2022-11-20T13:43:36.389Z,65.78
2022-11-20T13:46:07.135Z,65.89
2022-11-20T13:48:46.524Z,66.20
2022-11-20T13:51:53.158Z,66.91
2022-11-20T13:54:45.682Z,67.40
2022-11-20T13:57:58.806Z,68.56
2022-11-20T14:00:27.032Z,67.80
2022-11-20T14:03:07.643Z,67.23
2022-11-20T14:05:38.727Z,68.68
2022-11-20T14:08:08.202Z,66.67
2022-11-20T14:10:35.669Z,68.56
2022-11-20T14:13:20.466Z,68.13
2022-11-20T14:15:48.772Z,67.01
2022-11-20T14:18:27.126Z,66.41
2022-11-20T14:20:55.423Z,64.75
2022-11-20T14:23:31.631Z,66.17
2022-11-20T14:25:59.654Z,66.89
2022-11-20T14:28:28.956Z,65.99
2022-11-20T14:30:57.865Z,66.34
2022-11-20T14:33:27.659Z,66.52
2022-11-20T14:35:57.455Z,67.44
2022-11-20T14:38:28.803Z,66.70
2022-11-20T14:41:08.285Z,66.12
2022-11-20T14:43:38.995Z,66.00
2022-11-20T14:46:09.196Z,67.89
2022-11-20T14:48:40.502Z,67.59
2022-11-20T14:51:12.046Z,67.22
2022-11-20T14:53:40.218Z,65.61
2022-11-20T14:56:09.526Z,65.98
2022-11-20T14:58:36.950Z,64.93
2022-11-20T15:01:08.907Z,65.50
2022-11-20T15:03:41.453Z,65.86
2022-11-20T15:06:12.694Z,65.40
2022-11-20T15:08:52.366Z,64.17
2022-11-20T15:11:23.773Z,63.99
2022-11-20T15:13:51.575Z,64.77
2022-11-20T15:16:21.577Z,64.76
2022-11-20T15:18:49.390Z,65.12
2022-11-20T15:21:19.245Z,67.34
2022-11-20T15:23:47.069Z,65.57
2022-11-20T15:26:20.191Z,66.32
2022-11-20T15:28:52.364Z,66.62
2022-11-20T15:31:24.699Z,67.42
2022-11-20T15:33:52.886Z,65.91
2022-11-20T15:36:20.845Z,66.92
2022-11-20T15:38:48.734Z,67.56
2022-11-20T15:41:17.233Z,67.85
2022-11-20T15:43:45.252Z,68.87
2022-11-20T15:46:15.126Z,68.27
2022-11-20T15:48:48.927Z,69.00
2022-11-20T15:51:35.362Z,69.04
2022-11-20T15:54:21.872Z,67.14
2022-11-20T15:56:51.025Z,68.80
2022-11-20T15:59:19.585Z,69.31
2022-11-20T16:01:47.700Z,67.80
2022-11-20T16:04:17.124Z,68.00
2022-11-20T16:06:44.711Z,67.26
2022-11-20T16:09:12.194Z,68.30
2022-11-20T16:11:40.309Z,68.08
2022-11-20T16:14:29.917Z,67.81
2022-11-20T16:16:58.102Z,69.06
2022-11-20T16:19:25.882Z,68.75
2022-11-20T16:21:55.196Z,70.11
2022-11-20T16:24:26.527Z,70.30
2022-11-20T16:26:55.220Z,70.54
2022-11-20T16:29:23.346Z,70.19
2022-11-20T16:31:51.417Z,70.59
2022-11-20T16:34:19.910Z,71.78
2022-11-20T16:36:48.405Z,72.07
2022-11-20T16:39:23.663Z,72.90
2022-11-20T16:41:52.134Z,72.26
2022-11-20T16:44:20.438Z,70.88
2022-11-20T16:46:48.476Z,71.27
2022-11-20T16:49:16.492Z,72.02
2022-11-20T16:51:44.752Z,73.21
2022-11-20T16:54:16.427Z,72.12
2022-11-20T16:56:48.726Z,71.04
2022-11-20T16:59:16.926Z,70.53
2022-11-20T17:01:44.872Z,71.00
2022-11-20T17:04:13.252Z,70.34
2022-11-20T17:06:44.981Z,70.14
2022-11-20T17:09:15.574Z,69.91
2022-11-20T17:11:44.007Z,70.16
2022-11-20T17:14:12.488Z,69.25
2022-11-20T17:16:41.079Z,69.64
2022-11-20T17:19:09.352Z,68.74
2022-11-20T17:21:37.956Z,68.61
2022-11-20T17:24:11.606Z,70.69
2022-11-20T17:26:42.156Z,69.15
2022-11-20T17:29:15.469Z,70.70
2022-11-20T17:31:44.350Z,73.02
2022-11-20T17:34:14.550Z,73.04
2022-11-20T17:36:46.036Z,72.62
2022-11-20T17:39:15.859Z,74.23
2022-11-20T17:41:44.296Z,73.28
2022-11-20T17:44:13.537Z,71.78
2022-11-20T17:46:42.881Z,72.57
2022-11-20T17:49:10.498Z,69.50
2022-11-20T17:51:42.929Z,69.29
2022-11-20T17:54:11.502Z,71.40
2022-11-20T17:56:58.744Z,73.31
2022-11-20T17:59:27.051Z,72.69
2022-11-20T18:01:56.797Z,71.95
2022-11-20T18:04:27.786Z,73.36
2022-11-20T18:06:55.894Z,72.54
2022-11-20T18:09:23.375Z,72.32
2022-11-20T18:11:51.594Z,71.50
2022-11-20T18:14:36.816Z,71.39
2022-11-20T18:17:12.918Z,72.79
2022-11-20T18:20:01.020Z,73.73
2022-11-20T18:22:34.715Z,71.96
2022-11-20T18:25:03.573Z,72.55
2022-11-20T18:27:31.523Z,73.73
2022-11-20T18:29:59.381Z,73.37
2022-11-20T18:32:27.738Z,74.09
2022-11-20T18:34:56.393Z,74.02
2022-11-20T18:37:24.568Z,74.60
2022-11-20T18:39:52.710Z,75.49
2022-11-20T18:42:39.366Z,76.60
2022-11-20T18:45:11.318Z,75.86
2022-11-20T18:47:40.881Z,76.36
2022-11-20T18:50:09.768Z,77.68
2022-11-20T18:52:44.886Z,75.61
2022-11-20T18:55:12.891Z,75.61
2022-11-20T18:57:44.893Z,75.97
2022-11-20T19:00:13.814Z,74.35
2022-11-20T19:02:43.313Z,73.20
2022-11-20T19:05:12.681Z,70.93
2022-11-20T19:07:41.487Z,72.36
2022-11-20T19:10:09.781Z,71.53
2022-11-20T19:12:38.374Z,70.72
2022-11-20T19:15:07.909Z,69.74
2022-11-20T19:17:38.078Z,72.34
2022-11-20T19:20:07.582Z,71.83
2022-11-20T19:22:35.779Z,71.05
2022-11-20T19:25:06.016Z,71.58
2022-11-20T19:27:34.184Z,72.27
2022-11-20T19:30:03.924Z,72.41
2022-11-20T19:32:33.242Z,73.44
2022-11-20T19:35:01.478Z,74.91
2022-11-20T19:37:29.361Z,75.70
2022-11-20T19:39:59.938Z,76.18
2022-11-20T19:42:28.017Z,75.79
2022-11-20T19:44:55.837Z,74.05
2022-11-20T19:47:35.385Z,74.38
2022-11-20T19:50:11.730Z,73.87
2022-11-20T19:52:39.486Z,73.71
2022-11-20T19:55:08.445Z,73.62
2022-11-20T19:57:36.817Z,72.10
2022-11-20T20:00:05.323Z,71.53
2022-11-20T20:02:34.287Z,70.86
2022-11-20T20:05:02.511Z,71.10
2022-11-20T20:07:30.474Z,70.42
2022-11-20T20:09:58.469Z,70.15
2022-11-20T20:12:27.771Z,71.13
2022-11-20T20:14:55.775Z,73.35
2022-11-20T20:17:24.194Z,72.04
2022-11-20T20:19:52.345Z,72.17
2022-11-20T20:22:20.525Z,72.26
2022-11-20T20:24:48.910Z,71.75
2022-11-20T20:27:18.129Z,71.38
2022-11-20T20:29:46.021Z,73.52
2022-11-20T20:32:14.417Z,74.38
2022-11-20T20:34:42.730Z,75.02
2022-11-20T20:37:12.319Z,74.90
2022-11-20T20:39:41.115Z,74.13
2022-11-20T20:42:09.352Z,71.78
2022-11-20T20:44:55.834Z,72.59
2022-11-20T20:47:23.907Z,74.53
2022-11-20T20:49:52.638Z,75.90
2022-11-20T20:52:23.595Z,75.29
2022-11-20T20:54:52.107Z,73.23
2022-11-20T20:57:20.275Z,77.81
2022-11-20T20:59:47.835Z,75.77
2022-11-20T21:02:16.034Z,74.75
2022-11-20T21:04:43.876Z,75.34
2022-11-20T21:07:11.577Z,78.93
2022-11-20T21:09:39.525Z,76.01
2022-11-20T21:12:09.758Z,74.75
2022-11-20T21:14:37.917Z,74.54
2022-11-20T21:17:07.039Z,76.13
2022-11-20T21:19:37.110Z,75.55
2022-11-20T21:22:04.491Z,76.22
2022-11-20T21:24:34.293Z,75.19
2022-11-20T21:27:05.160Z,74.31
2022-11-20T21:29:33.021Z,73.91
2022-11-20T21:32:00.526Z,74.25
2022-11-20T21:34:28.206Z,73.36
2022-11-20T21:36:56.179Z,74.10
2022-11-20T21:39:23.576Z,73.96
2022-11-20T21:41:50.910Z,73.10
2022-11-20T21:44:33.827Z,74.60
2022-11-20T21:47:01.162Z,75.00
2022-11-20T21:49:28.747Z,76.04
2022-11-20T21:51:56.419Z,75.01
2022-11-20T21:54:24.042Z,73.93
2022-11-20T21:56:52.009Z,72.61
2022-11-20T21:59:19.335Z,74.42
2022-11-20T22:01:46.792Z,74.55
2022-11-20T22:04:15.518Z,73.84
2022-11-20T22:06:42.841Z,72.47
2022-11-20T22:09:10.996Z,72.32
2022-11-20T22:11:38.610Z,71.35
2022-11-20T22:14:21.273Z,70.09
2022-11-20T22:16:50.622Z,71.15
2022-11-20T22:19:22.209Z,71.78
2022-11-20T22:21:52.677Z,69.83
2022-11-20T22:24:21.706Z,71.91
2022-11-20T22:26:49.633Z,73.39
2022-11-20T22:29:20.958Z,71.13
2022-11-20T22:31:48.470Z,70.15
2022-11-20T22:34:15.842Z,70.06
2022-11-20T22:36:43.470Z,70.00
2022-11-20T22:39:10.841Z,73.10
2022-11-20T22:41:38.167Z,72.58
2022-11-20T22:44:07.896Z,73.58
2022-11-20T22:46:36.476Z,73.66
2022-11-20T22:49:05.963Z,74.04
2022-11-20T22:51:36.270Z,72.54
2022-11-20T22:54:04.090Z,73.13
2022-11-20T22:56:31.673Z,74.00
2022-11-20T22:58:59.261Z,73.76
2022-11-20T23:01:31.943Z,75.05
2022-11-20T23:04:01.514Z,74.21
2022-11-20T23:06:29.573Z,74.04
2022-11-20T23:08:57.065Z,75.79
2022-11-20T23:11:27.523Z,76.45
2022-11-20T23:13:58.040Z,76.22
2022-11-20T23:16:27.452Z,77.30
2022-11-20T23:18:59.423Z,76.50
2022-11-20T23:21:27.292Z,76.20
2022-11-20T23:23:57.155Z,74.98
2022-11-20T23:26:26.783Z,75.07
2022-11-20T23:28:56.150Z,75.32
2022-11-20T23:31:24.185Z,74.70
2022-11-20T23:33:51.993Z,74.87
2022-11-20T23:36:19.590Z,73.96
2022-11-20T23:38:46.928Z,72.49
2022-11-20T23:41:14.853Z,74.00
2022-11-20T23:43:42.414Z,74.20
2022-11-20T23:46:15.109Z,74.12
2022-11-20T23:48:45.175Z,73.99
2022-11-20T23:51:13.606Z,73.75
2022-11-20T23:53:41.136Z,72.77
2022-11-20T23:56:08.725Z,71.14
2022-11-20T23:58:37.391Z,72.56
